Flight Track Log - Related Links

Times and Time Zones

All times are in EDT time to prevent confusion due to time zone crossing. See the XOJ552 flight status page for this flight to view local times or setup timezone preferences in your user account.

Time Position Orientation Groundspeed Altitude Reporting Facility
EDT Latitude Longitude Course Direction KTS MPH feet Rate Location/Type
Wed 11:04:17 AM 39.9167 -105.1333 78° East 174 200 6,700  Level Denver TRACON
Wed 11:05:17 AM 39.9833 -105.1333 360° North 226 260 9,100 2,887 Climbing Denver TRACON
Wed 11:06:03 AM 39.9931 -105.0781 77° East 224 258 11,800 3,389 Climbing Denver Center
Wed 11:07:05 AM 39.9653 -104.9978 114° Southeast 248 285 15,200 3,048 Climbing Denver Center
Wed 11:08:07 AM 39.9503 -104.8881 100° East 305 351 18,100 2,710 Climbing Denver Center
Wed 11:09:09 AM 39.9608 -104.7661 84° East 336 387 20,800 2,516 Climbing Denver Center
Wed 11:10:00 AM 40.1699 -103.5007 78° East  Level Estimated
Wed 11:10:11 AM 39.9689 -104.6269 86° East 380 437 23,300  Level Denver Center
Wed 11:11:13 AM 39.9786 -104.4664 85° East 406 467 25,600 2,323 Climbing Denver Center
Wed 11:12:15 AM 39.9883 -104.3089 85° East 430 495 28,100 2,371 Climbing Denver Center
Wed 11:13:17 AM 39.9981 -104.1522 85° East 432 497 30,500 2,032 Climbing Denver Center
Wed 11:14:19 AM 40.0083 -103.9931 85° East 439 505 32,300 1,694 Climbing Denver Center
Wed 11:15:21 AM 40.0169 -103.8292 86° East 452 520 34,000 1,694 Climbing Denver Center
Wed 11:16:23 AM 40.0383 -103.6722 80° East 439 505 35,800 1,742 Climbing Denver Center
Wed 11:17:25 AM 40.0683 -103.4794 78° East 451 519 37,600 1,452 Climbing Denver Center
Wed 11:18:27 AM 40.0961 -103.3178 77° East 456 525 38,800 1,113 Climbing Denver Center
Wed 11:19:29 AM 40.1211 -103.1550 79° East 458 527 39,900 1,016 Climbing Denver Center
Wed 11:20:31 AM 40.1461 -102.9908 79° East 461 531 40,900 968 Climbing Denver Center
Wed 11:21:33 AM 40.1728 -102.8289 78° East 457 526 41,900 871 Climbing Denver Center
Wed 11:22:35 AM 40.1997 -102.6492 79° East 456 525 42,700 629 Climbing Denver Center
Wed 11:23:37 AM 40.2247 -102.4931 78° East 458 527 43,200 484 Climbing Denver Center
Wed 11:24:39 AM 40.2525 -102.3078 79° East 464 534 43,700 484 Climbing Denver Center
Wed 11:25:41 AM 40.2764 -102.1503 79° East 462 532 44,200 480 Climbing Denver Center
Wed 11:26:44 AM 40.3042 -101.9664 79° East 463 533 44,700 384 Climbing Denver Center
Wed 11:27:46 AM 40.3269 -101.8078 79° East 463 533 45,000 145 Climbing Denver Center
Wed 11:28:48 AM 40.3547 -101.6208 79° East 469 540 45,000  Level Denver Center
Wed 11:29:50 AM 40.3781 -101.4558 79° East 480 552 45,000  Level Denver Center
Wed 11:31:00 AM 40.3913 -101.2704 77° East  Level FlightAware Approximate
Wed 11:31:54 AM 40.4294 -101.0947 77° East 489 563 45,000  Level Denver Center
Wed 11:32:56 AM 40.4569 -100.8967 80° East 496 571 45,000  Level Denver Center
Wed 11:33:58 AM 40.4786 -100.7297 80° East 491 565 45,000  Level Denver Center
Wed 11:35:00 AM 40.5036 -100.5350 80° East 489 563 45,000  Level Denver Center
Wed 11:36:02 AM 40.5250 -100.3681 80° East 489 563 45,000  Level Denver Center
Wed 11:37:04 AM 40.5497 -100.1767 80° East 482 555 45,000  Level Denver Center
Wed 11:38:06 AM 40.5697 -100.0106 81° East 481 554 45,000  Level Denver Center
Wed 11:39:08 AM 40.5942 -99.8178 80° East 481 554 45,000  Level Denver Center
Wed 11:40:10 AM 40.6150 -99.6519 81° East 481 554 45,000  Level Denver Center
Wed 11:41:12 AM 40.6375 -99.4575 81° East 481 554 45,000  Level Denver Center
Wed 11:42:14 AM 40.6572 -99.2900 81° East 483 556 45,000  Level Denver Center
Wed 11:43:16 AM 40.6758 -99.1153 82° East 485 558 45,000  Level Minneapolis Center
Wed 11:44:18 AM 40.6981 -98.9372 81° East 489 563 45,000  Level Minneapolis Center
Wed 11:45:20 AM 40.7172 -98.7606 82° East 489 563 45,000  Level Minneapolis Center
Wed 11:46:22 AM 40.7397 -98.5475 82° East 490 564 45,000  Level Minneapolis Center
Wed 11:47:24 AM 40.7594 -98.3697 82° East 490 564 45,000  Level Minneapolis Center
Wed 11:48:26 AM 40.7781 -98.1908 82° East 491 565 45,000  Level Minneapolis Center
Wed 11:49:28 AM 40.7972 -98.0125 82° East 492 566 45,000  Level Minneapolis Center
Wed 11:50:30 AM 40.8167 -97.8331 82° East 493 567 45,000  Level Minneapolis Center
Wed 11:51:32 AM 40.8353 -97.6528 82° East 495 570 45,000  Level Minneapolis Center
Wed 11:52:34 AM 40.8567 -97.4344 83° East 498 573 45,000  Level Minneapolis Center
Wed 11:53:36 AM 40.8744 -97.2519 83° East 500 575 45,000  Level Minneapolis Center
Wed 11:54:38 AM 40.8928 -97.0692 82° East 501 577 45,000  Level Minneapolis Center
Wed 11:55:40 AM 40.9103 -96.8853 83° East 504 580 45,000  Level Minneapolis Center
Wed 11:56:42 AM 40.9294 -96.7017 82° East 506 582 45,000  Level Minneapolis Center
Wed 11:57:44 AM 40.9586 -96.4819 80° East 508 585 45,000  Level Minneapolis Center
Wed 11:58:46 AM 40.9836 -96.3003 80° East 506 582 45,000  Level Minneapolis Center
Wed 11:59:48 AM 41.0078 -96.1189 80° East 506 582 45,000  Level Minneapolis Center
Wed 12:00:50 PM 41.0317 -95.9353 80° East 506 582 45,000  Level Minneapolis Center
Wed 12:01:52 PM 41.0547 -95.7514 81° East 513 590 45,000  Level Minneapolis Center
Wed 12:02:54 PM 41.0842 -95.5314 80° East 511 588 45,000  Level Minneapolis Center
Wed 12:03:56 PM 41.1083 -95.3467 80° East 511 588 45,000  Level Minneapolis Center
Wed 12:04:58 PM 41.1322 -95.1631 80° East 510 587 45,000  Level Minneapolis Center
Wed 12:06:00 PM 41.1550 -94.9781 81° East 509 586 45,000  Level Minneapolis Center
Wed 12:07:02 PM 41.1772 -94.7936 81° East 508 585 45,000  Level Minneapolis Center
Wed 12:08:04 PM 41.1992 -94.6092 81° East 507 583 45,000  Level Minneapolis Center
Wed 12:09:06 PM 41.2258 -94.3861 81° East 510 587 45,000  Level Minneapolis Center
Wed 12:10:08 PM 41.2464 -94.2019 81° East 507 583 45,000  Level Minneapolis Center
Wed 12:11:10 PM 41.2683 -94.0111 81° East 507 583 45,000  Level Minneapolis Center
Wed 12:12:12 PM 41.2903 -93.8264 81° East 508 585 45,000  Level Minneapolis Center
Wed 12:13:15 PM 41.3122 -93.6431 81° East 507 583 45,000  Level Minneapolis Center
Wed 12:14:17 PM 41.3356 -93.4561 81° East 510 587 45,000  Level Minneapolis Center
Wed 12:15:19 PM 41.3572 -93.2700 81° East 511 588 45,000  Level Minneapolis Center
Wed 12:16:21 PM 41.3819 -93.0469 82° East 511 588 45,000  Level Minneapolis Center
Wed 12:17:23 PM 41.4031 -92.8617 81° East 509 586 45,000  Level Minneapolis Center
Wed 12:18:25 PM 41.4239 -92.6761 81° East 508 585 45,000  Level Minneapolis Center
Wed 12:19:02 PM 41.4353 -92.5622 82° East 509 586 45,000  Level Chicago Center
Wed 12:20:04 PM 41.4550 -92.3828 82° East 512 589 45,000  Level Chicago Center
Wed 12:21:06 PM 41.4783 -92.1606 82° East 511 588 45,000  Level Chicago Center
Wed 12:22:08 PM 41.4975 -91.9722 82° East 514 592 45,000  Level Chicago Center
Wed 12:23:10 PM 41.5169 -91.7875 82° East 513 590 45,000  Level Chicago Center
Wed 12:24:12 PM 41.5353 -91.6003 82° East 514 592 45,000  Level Chicago Center
Wed 12:25:14 PM 41.5544 -91.4125 82° East 516 594 45,000  Level Chicago Center
Wed 12:26:16 PM 41.5747 -91.1897 83° East 512 589 45,000  Level Chicago Center
Wed 12:27:18 PM 41.5931 -91.0031 82° East 513 590 45,000  Level Chicago Center
Wed 12:28:20 PM 41.6111 -90.8147 83° East 516 594 45,000  Level Chicago Center
Wed 12:29:22 PM 41.6297 -90.6097 83° East 515 593 45,000  Level Chicago Center
Wed 12:30:24 PM 41.6464 -90.4183 83° East 516 594 45,000  Level Chicago Center
Wed 12:31:26 PM 41.6639 -90.2267 83° East 518 596 45,000  Level Chicago Center
Wed 12:32:28 PM 41.6803 -90.0342 83° East 518 596 45,000  Level Chicago Center
Wed 12:33:30 PM 41.6958 -89.8403 84° East 521 600 45,000  Level Chicago Center
Wed 12:34:33 PM 41.7158 -89.6050 83° East 527 606 45,000  Level Chicago Center
Wed 12:35:35 PM 41.7306 -89.4192 84° East 525 604 45,000  Level Chicago Center
Wed 12:36:37 PM 41.7461 -89.2233 84° East 528 608 45,000  Level Chicago Center
Wed 12:37:39 PM 41.7611 -89.0294 84° East 525 604 45,000  Level Chicago Center
Wed 12:38:41 PM 41.7789 -88.7961 84° East 526 605 45,000  Level Chicago Center
Wed 12:39:43 PM 41.7925 -88.6017 85° East 525 604 45,000  Level Chicago Center
Wed 12:40:45 PM 41.8061 -88.4078 85° East 522 601 45,000 -532 Level Chicago Center
Wed 12:41:47 PM 41.8192 -88.2114 85° East 523 602 43,900 -968 Descending Chicago Center
Wed 12:42:49 PM 41.8333 -88.0122 84° East 529 609 43,000 -435 Descending Chicago Center
Wed 12:43:51 PM 41.8464 -87.8156 85° East 527 606 43,000  Level Chicago Center
Wed 12:44:54 PM 41.8592 -87.6219 85° East 521 600 43,000  Level Chicago Center
Wed 12:45:56 PM 41.8733 -87.3903 85° East 521 600 43,000  Level Chicago Center
Wed 12:46:58 PM 41.8858 -87.1992 85° East 517 595 43,000  Level Chicago Center
Wed 12:48:00 PM 41.8981 -87.0064 85° East 518 596 43,000 -484 Level Chicago Center
Wed 12:49:02 PM 41.9086 -86.8117 86° East 522 601 42,000 -1,403 Descending Chicago Center
Wed 12:50:04 PM 41.9172 -86.6147 87° East 530 610 40,100 -1,790 Descending Chicago Center
Wed 12:51:06 PM 41.9283 -86.4150 86° East 537 618 38,300 -1,935 Descending Chicago Center
Wed 12:52:08 PM 41.9414 -86.1767 86° East 534 615 36,100 -1,113 Descending Chicago Center
Wed 12:53:10 PM 41.9511 -85.9808 86° East 527 606 36,000 -480 Descending Chicago Center
Wed 12:54:13 PM 41.9597 -85.7858 87° East 524 603 35,100 -1,152 Descending Chicago Center
Wed 12:55:15 PM 41.9700 -85.5864 86° East 528 608 33,600 -1,016 Descending Chicago Center
Wed 12:56:17 PM 41.9792 -85.3842 86° East 535 616 33,000 -290 Descending Chicago Center
Wed 12:57:19 PM 41.9886 -85.1822 86° East 536 617 33,000  Level Chicago Center
Wed 12:58:21 PM 41.9986 -84.9639 86° East 546 628 33,000  Level Chicago Center
Wed 12:59:23 PM 42.0067 -84.7642 87° East 539 620 33,000 -290 Level Chicago Center
Wed 01:00:25 PM 42.0136 -84.5658 87° East 535 616 32,400 -1,161 Descending Chicago Center
Wed 01:01:27 PM 42.0236 -84.3353 87° East 518 596 30,600 -1,500 Descending Chicago Center
Wed 01:02:29 PM 42.0286 -84.1528 88° East 500 575 29,300 -1,323 Descending Chicago Center
Wed 01:03:34 PM 42.0333 -83.9594 88° East 493 567 27,800 -1,381 Descending Cleveland Center
Wed 01:04:35 PM 42.0378 -83.7764 88° East 494 568 26,400 -1,317 Descending Cleveland Center
Wed 01:05:37 PM 42.0439 -83.5989 87° East 485 558 25,100 -1,403 Descending Cleveland Center
Wed 01:06:39 PM 42.0419 -83.4053 91° East 465 535 23,500 -1,742 Descending Cleveland Center
Wed 01:07:41 PM 42.0261 -83.2389 97° East 448 516 21,500 -1,984 Descending Cleveland Center
Wed 01:08:43 PM 42.0111 -83.0775 97° East 430 495 19,400 -1,984 Descending Cleveland Center
Wed 01:09:45 PM 41.9956 -82.9217 98° East 423 487 17,400 -1,935 Descending Cleveland Center
Wed 01:10:47 PM 41.9803 -82.7700 98° East 415 478 15,400 -1,935 Descending Cleveland Center
Wed 01:11:49 PM 41.9656 -82.6247 98° East 393 452 13,400 -2,250 Descending Cleveland Center
Wed 01:12:07 PM 41.9578 -82.5628 100° East 363 418 12,400 -2,500 Descending Cleveland Center
Wed 01:12:37 PM 41.9425 -82.5036 109° East 355 409 11,400 -1,953 Descending Cleveland Center
Wed 01:12:50 PM 41.9339 -82.4700 109° East 364 419 11,000 -1,377 Descending Cleveland Center
Wed 01:13:38 PM 41.9042 -82.3817 114° Southeast 320 368 10,000 -968 Descending Cleveland Center
Wed 01:13:52 PM 41.8975 -82.3625 115° Southeast 326 375 10,000  Level Cleveland Center
Wed 01:14:54 PM 41.8675 -82.2606 112° Southeast 300 345 10,000  Level Cleveland Center
Wed 01:15:39 PM 41.8394 -82.1767 114° Southeast 302 348 10,000  Level Cleveland Center
Wed 01:15:56 PM 41.8322 -82.1589 119° Southeast 301 346 10,000  Level Cleveland Center
Wed 01:16:40 PM 41.7719 -82.1147 151° Southeast 298 343 10,000  Level Cleveland Center
Wed 01:16:58 PM 41.7547 -82.0975 143° Southeast 300 345 10,000 -1,082 Level Cleveland Center
Wed 01:17:41 PM 41.7042 -82.0528 147° Southeast 291 335 8,900 -1,452 Descending Cleveland Center
Wed 01:18:00 PM 41.6869 -82.0375 146° Southeast 293 337 8,500 -1,600 Descending Cleveland Center
Wed 01:18:41 PM 41.6381 -81.9969 148° Southeast 286 329 7,300 -1,452 Descending Cleveland Center
Wed 01:19:02 PM 41.6206 -81.9789 142° Southeast 287 330 7,000 -217 Descending Cleveland Center
Wed 01:20:04 PM 41.5572 -81.9247 147° Southeast 273 314 7,000  Level Cleveland Center
Wed 01:20:55 PM 41.5000 -81.8764 148° Southeast 255 293 7,000  Level Cleveland Center
Wed 01:21:06 PM 41.4858 -81.8706 163° South 256 295 7,000  Level Cleveland Center
Wed 01:21:49 PM 41.4533 -81.9050 218° Southwest 201 231 7,000  Level Cleveland Center
Wed 01:22:08 PM 41.4411 -81.9197 222° Southwest 216 249 7,000 -393 Level Cleveland Center
Wed 01:22:50 PM 41.4164 -81.9631 233° Southwest 196 226 6,600 -871 Descending Cleveland Center
Wed 01:23:10 PM 41.4064 -81.9767 226° Southwest 201 231 6,100 -1,400 Descending Cleveland Center
Wed 01:23:50 PM 41.3853 -82.0250 240° Southwest 214 246 5,200 -1,258 Descending Cleveland Center
Wed 01:24:12 PM 41.3750 -82.0425 232° Southwest 205 236 4,800 -1,075 Descending Cleveland Center
Wed 01:24:57 PM 41.3494 -82.0942 237° Southwest 197 227 4,000 -774 Descending Cleveland Center
Wed 01:25:14 PM 41.3436 -82.1028 228° Southwest 202 232 4,000 -197 Level Cleveland Center
Wed 01:25:58 PM 41.3044 -82.1036 181° South 217 250 3,800 -387 Descending Cleveland Center
Wed 01:26:16 PM 41.2972 -82.0917 129° Southeast 216 249 3,600 -800 Descending Cleveland Center
Wed 01:26:58 PM 41.2919 -82.0372 97° East 206 237 3,000 -581 Descending Cleveland Center
Wed 01:27:18 PM 41.2975 -82.0281 51° Northeast 202 232 3,000  Level Cleveland Center
Wed 01:27:59 PM 41.3256 -81.9928 43° Northeast 167 192 3,000 -194 Level Cleveland Center
Wed 01:28:20 PM 41.3361 -81.9725 55° Northeast 179 206 2,800 -700 Descending Cleveland Center
Wed 01:28:59 PM 41.3528 -81.9469 49° Northeast 145 167 2,300 -774 Descending Cleveland Center
Wed 01:29:22 PM 41.3611 -81.9297 57° Northeast 159 183 2,000 -787 Descending Cleveland Center
Wed 01:30:00 PM 41.3750 -81.9117 44° Northeast 126 145 1,500 -677 Descending Cleveland Center
Wed 01:30:24 PM 41.3842 -81.8942 55° Northeast 138 159 1,300 -655 Descending Cleveland Center
Wed 01:30:55 PM 41.3972 -81.8764 46° Northeast 129 148 900 -492 Descending Cleveland Center
Wed 01:31:25 PM 41.4064 -81.8594 54° Northeast 132 152 800 -200 Descending Cleveland Center

Login

Don't have an account? Register now (free) for customized features, flight alerts, and more!